.
WxDataArchive / Data Records for 2010-12-06
2010-12-05 December 2010 2010-12-07

Data Records for Monday, 06 December 2010

Time	Temp	Chill	HIndex	Humid	Dewpt	 Wind 	HiWind	WindDir	Rain 	Barom 
-----	----	-----	------	-----	-----	------	------	-------	-----	----- 
00:00	23.6	23.6	23.6	84	19.5	2	4	248	0.00	30.158 
00:05	23.6	23.6	23.6	84	19.5	2	4	270	0.00	30.158 
00:10	23.5	23.5	23.5	84	19.4	2	4	270	0.00	30.158 
00:15	23.5	23.5	23.5	84	19.4	3	5	270	0.00	30.159 
00:20	23.5	23.5	23.5	84	19.4	3	6	270	0.00	30.159 
00:25	23.5	23.5	23.5	84	19.4	2	4	270	0.00	30.159 
00:30	23.5	23.5	23.5	84	19.4	1	3	248	0.00	30.151 
00:35	23.3	23.3	23.3	84	19.2	2	5	270	0.00	30.151 
00:40	23.3	23.3	23.3	84	19.2	3	5	270	0.00	30.151 
00:45	23.3	23.3	23.3	83	18.9	2	7	248	0.00	30.152 
00:50	23.3	23.3	23.3	83	18.9	3	9	270	0.00	30.152 
00:55	23.2	23.2	23.2	83	18.8	2	4	270	0.00	30.152 
01:00	23.0	23.0	23.0	84	18.9	2	5	225	0.00	30.150 
01:05	22.9	22.9	22.9	84	18.8	2	4	270	0.00	30.150 
01:10	22.7	22.7	22.7	84	18.6	3	7	270	0.00	30.150 
01:15	22.5	22.5	22.5	84	18.4	2	6	248	0.00	30.146 
01:20	22.4	22.4	22.4	84	18.3	3	9	248	0.00	30.146 
01:25	22.4	22.4	22.4	84	18.3	2	7	248	0.00	30.146 
01:30	22.4	22.4	22.4	84	18.3	2	5	270	0.00	30.147 
01:35	22.2	22.2	22.2	84	18.1	2	5	270	0.00	30.147 
01:40	22.2	22.2	22.2	84	18.1	2	5	248	0.00	30.147 
01:45	22.2	22.2	22.2	84	18.1	2	4	248	0.00	30.147 
01:50	22.1	22.1	22.1	84	18.0	1	3	270	0.00	30.147 
01:55	22.1	22.1	22.1	84	18.0	1	4	248	0.00	30.147 
02:00	22.1	22.1	22.1	84	18.0	2	7	270	0.00	30.146 
02:05	22.1	22.1	22.1	83	17.7	2	5	248	0.00	30.146 
02:10	22.1	22.1	22.1	83	17.7	2	4	270	0.00	30.146 
02:15	22.1	22.1	22.1	83	17.7	2	5	270	0.00	30.146 
02:20	21.9	21.9	21.9	83	17.5	2	4	248	0.00	30.146 
02:25	21.8	21.8	21.8	82	17.2	2	4	270	0.00	30.146 
02:30	21.6	21.6	21.6	82	17.0	2	5	270	0.00	30.147 
02:35	21.3	21.3	21.3	82	16.7	2	5	225	0.00	30.147 
02:40	21.1	21.1	21.1	81	16.2	2	4	270	0.00	30.147 
02:45	20.8	20.8	20.8	81	15.9	2	5	248	0.00	30.149 
02:50	20.6	20.6	20.6	82	16.0	1	5	248	0.00	30.149 
02:55	20.3	20.3	20.3	82	15.7	1	2	248	0.00	30.149 
03:00	20.2	20.2	20.2	82	15.6	2	4	270	0.00	30.151 
03:05	20.2	20.2	20.2	82	15.6	2	4	270	0.00	30.151 
03:10	20.0	20.0	20.0	82	15.4	1	4	248	0.00	30.151 
03:15	19.9	19.9	19.9	82	15.3	1	3	225	0.00	30.149 
03:20	19.9	19.9	19.9	83	15.6	1	4	270	0.00	30.149 
03:25	19.9	19.9	19.9	83	15.6	2	5	248	0.00	30.149 
03:30	19.9	19.9	19.9	83	15.6	2	4	248	0.00	30.147 
03:35	19.9	19.9	19.9	83	15.6	2	4	270	0.00	30.147 
03:40	19.7	19.7	19.7	83	15.4	2	5	270	0.00	30.147 
03:45	19.7	19.7	19.7	83	15.4	2	4	248	0.00	30.143 
03:50	19.7	19.7	19.7	83	15.4	1	3	248	0.00	30.143 
03:55	19.5	19.5	19.5	83	15.2	1	4	248	0.00	30.143 
04:00	19.4	19.4	19.4	83	15.1	1	4	248	0.00	30.137 
04:05	19.4	19.4	19.4	83	15.1	2	4	248	0.00	30.137 
04:10	19.4	19.4	19.4	83	15.1	2	4	248	0.00	30.137 
04:15	19.4	19.4	19.4	83	15.1	2	4	248	0.00	30.136 
04:20	19.4	19.4	19.4	83	15.1	2	6	248	0.00	30.136 
04:25	19.4	19.4	19.4	83	15.1	2	4	270	0.00	30.136 
04:30	19.4	19.4	19.4	83	15.1	2	6	248	0.00	30.134 
04:35	19.4	19.4	19.4	83	15.1	2	4	248	0.00	30.134 
04:40	19.4	19.4	19.4	83	15.1	2	4	248	0.00	30.134 
04:45	19.4	19.4	19.4	82	14.8	2	4	270	0.00	30.133 
04:50	19.2	19.2	19.2	82	14.6	1	4	270	0.00	30.133 
04:55	19.2	19.2	19.2	82	14.6	2	5	270	0.00	30.133 
05:00	19.2	19.2	19.2	82	14.6	1	4	248	0.00	30.134 
05:05	19.1	19.1	19.1	82	14.5	2	5	270	0.00	30.134 
05:10	18.9	18.9	18.9	82	14.3	1	3	248	0.00	30.134 
05:15	18.8	18.8	18.8	82	14.2	1	5	248	0.00	30.136 
05:20	18.6	18.6	18.6	83	14.3	1	4	248	0.00	30.136 
05:25	18.6	18.6	18.6	82	14.0	2	5	270	0.00	30.136 
05:30	18.4	18.4	18.4	82	13.8	2	6	248	0.00	30.137 
05:35	18.4	18.4	18.4	82	13.8	1	3	270	0.00	30.137 
05:40	18.3	18.3	18.3	82	13.7	1	3	270	0.00	30.137 
05:45	18.1	18.1	18.1	82	13.5	2	5	270	0.00	30.140 
05:50	18.0	18.0	18.0	82	13.5	2	5	270	0.00	30.140 
05:55	17.8	17.8	17.8	82	13.3	2	5	248	0.00	30.140 
06:00	17.8	17.8	17.8	82	13.3	1	4	248	0.00	30.138 
06:05	17.7	17.7	17.7	82	13.2	2	4	270	0.00	30.138 
06:10	17.7	17.7	17.7	82	13.2	2	5	248	0.00	30.138 
06:15	17.5	17.5	17.5	82	13.0	1	3	270	0.00	30.139 
06:20	17.5	17.5	17.5	82	13.0	2	3	270	0.00	30.139 
06:25	17.3	17.3	17.3	82	12.8	2	5	270	0.00	30.139 
06:30	17.2	17.2	17.2	82	12.7	1	3	270	0.00	30.142 
06:35	17.2	17.2	17.2	82	12.7	2	4	248	0.00	30.142 
06:40	17.0	17.0	17.0	82	12.5	2	4	248	0.00	30.142 
06:45	17.0	17.0	17.0	82	12.5	2	4	248	0.00	30.142 
06:50	17.0	17.0	17.0	82	12.5	1	4	270	0.00	30.142 
06:55	17.0	17.0	17.0	83	12.7	2	5	248	0.00	30.142 
07:00	17.0	17.0	17.0	83	12.7	1	4	270	0.00	30.141 
07:05	16.9	16.9	16.9	83	12.6	1	3	270	0.00	30.141 
07:10	16.9	16.9	16.9	83	12.6	1	4	248	0.00	30.141 
07:15	16.7	16.7	16.7	83	12.5	1	4	248	0.00	30.142 
07:20	16.7	16.7	16.7	83	12.5	1	3	248	0.00	30.142 
07:25	16.5	16.5	16.5	83	12.3	2	5	270	0.00	30.142 
07:30	16.5	16.5	16.5	83	12.3	2	5	248	0.00	30.142 
07:35	16.5	16.5	16.5	83	12.3	1	4	248	0.00	30.142 
07:40	16.5	16.5	16.5	84	12.5	2	4	248	0.00	30.142 
07:45	16.4	16.4	16.4	84	12.4	2	5	248	0.00	30.145 
07:50	16.4	16.4	16.4	84	12.4	1	6	225	0.00	30.145 
07:55	16.4	16.4	16.4	84	12.4	1	3	248	0.00	30.145 
08:00	16.4	16.4	16.4	84	12.4	2	4	248	0.00	30.142 
08:05	16.4	16.4	16.4	84	12.4	1	3	248	0.00	30.142 
08:10	16.4	16.4	16.4	84	12.4	1	4	248	0.00	30.142 
08:15	16.4	16.4	16.4	84	12.4	2	5	248	0.00	30.141 
08:20	16.2	16.2	16.2	84	12.2	1	5	248	0.00	30.141 
08:25	16.2	16.2	16.2	84	12.2	1	4	270	0.00	30.141 
08:30	16.2	16.2	16.2	84	12.2	1	4	270	0.00	30.142 
08:35	16.2	16.2	16.2	84	12.2	1	5	270	0.00	30.142 
08:40	16.2	16.2	16.2	84	12.2	1	4	248	0.00	30.142 
08:45	16.2	16.2	16.2	84	12.2	1	4	248	0.00	30.143 
08:50	16.2	16.2	16.2	84	12.2	2	5	248	0.00	30.143 
08:55	16.4	16.4	16.4	84	12.4	1	3	270	0.00	30.143 
09:00	16.4	16.4	16.4	84	12.4	1	4	292	0.00	30.143 
09:05	16.4	16.4	16.4	84	12.4	1	3	248	0.00	30.143 
09:10	16.4	16.4	16.4	84	12.4	1	3	248	0.00	30.143 
09:15	16.5	16.5	16.5	84	12.5	1	3	248	0.00	30.140 
09:20	16.5	16.5	16.5	84	12.5	2	5	248	0.00	30.140 
09:25	16.5	16.5	16.5	84	12.5	2	5	248	0.00	30.140 
09:30	16.5	16.5	16.5	84	12.5	2	5	248	0.00	30.140 
09:35	16.7	16.7	16.7	84	12.7	1	6	248	0.00	30.140 
09:40	16.9	16.9	16.9	84	12.9	1	4	248	0.00	30.140 
09:45	16.9	16.9	16.9	84	12.9	1	4	270	0.00	30.140 
09:50	17.0	17.0	17.0	84	13.0	2	6	248	0.00	30.140 
09:55	17.2	17.2	17.2	84	13.2	1	4	225	0.00	30.140 
10:00	17.2	17.2	17.2	85	13.5	2	6	248	0.00	30.139 
10:05	17.3	17.3	17.3	85	13.6	2	5	248	0.00	30.139 
10:10	17.5	17.5	17.5	85	13.8	1	4	248	0.00	30.139 
10:15	17.7	17.7	17.7	85	14.0	1	3	248	0.00	30.139 
10:20	17.8	17.8	17.8	85	14.1	2	4	248	0.00	30.139 
10:25	18.0	18.0	18.0	85	14.3	1	4	248	0.00	30.139 
10:30	18.1	18.1	18.1	85	14.4	1	4	248	0.00	30.138 
10:35	18.3	18.3	18.3	85	14.6	1	3	248	0.00	30.138 
10:40	18.4	18.4	18.4	85	14.7	2	3	248	0.00	30.138 
10:45	18.6	18.6	18.6	85	14.9	2	5	270	0.00	30.131 
10:50	18.8	18.8	18.8	84	14.8	2	4	248	0.00	30.131 
10:55	18.9	18.9	18.9	85	15.2	2	5	248	0.00	30.131 
11:00	18.9	18.9	18.9	85	15.2	2	4	248	0.00	30.125 
11:05	19.1	19.1	19.1	84	15.1	2	6	248	0.00	30.125 
11:10	19.4	19.4	19.4	84	15.4	2	3	248	0.00	30.125 
11:15	19.5	19.5	19.5	84	15.5	2	5	248	0.00	30.120 
11:20	19.7	19.7	19.7	84	15.7	2	4	248	0.00	30.120 
11:25	20.0	20.0	20.0	84	16.0	2	5	248	0.00	30.120 
11:30	20.2	20.2	20.2	84	16.2	2	7	248	0.00	30.110 
11:35	20.2	20.2	20.2	84	16.2	2	5	270	0.00	30.110 
11:40	20.3	20.3	20.3	84	16.3	2	5	270	0.00	30.110 
11:45	20.3	20.3	20.3	84	16.3	2	4	248	0.00	30.106 
11:50	20.5	20.5	20.5	84	16.4	2	6	248	0.00	30.106 
11:55	20.8	20.8	20.8	84	16.7	2	3	248	0.00	30.106 
12:00	21.1	21.1	21.1	84	17.0	3	5	248	0.00	30.099 
12:05	21.4	21.4	21.4	84	17.3	2	5	248	0.00	30.099 
12:10	21.6	21.6	21.6	84	17.5	3	6	270	0.00	30.099 
12:15	21.6	21.6	21.6	84	17.5	3	5	270	0.00	30.094 
12:20	21.9	21.9	21.9	84	17.8	2	6	248	0.00	30.094 
12:25	22.2	22.2	22.2	83	17.8	3	5	270	0.00	30.094 
12:30	22.2	22.2	22.2	82	17.6	3	4	270	0.00	30.090 
12:35	22.2	22.2	22.2	82	17.6	2	3	270	0.00	30.090 
12:40	22.1	22.1	22.1	82	17.5	2	5	270	0.00	30.090 
12:45	22.1	22.1	22.1	82	17.5	3	7	248	0.00	30.086 
12:50	22.2	22.2	22.2	82	17.6	2	4	248	0.00	30.086 
12:55	22.4	22.4	22.4	82	17.8	2	5	248	0.00	30.086 
13:00	22.7	22.7	22.7	83	18.3	2	3	248	0.00	30.078 
13:05	22.7	22.7	22.7	82	18.0	2	4	248	0.00	30.078 
13:10	22.7	22.7	22.7	82	18.0	2	4	248	0.00	30.078 
13:15	22.7	22.7	22.7	82	18.0	3	5	270	0.00	30.075 
13:20	22.5	22.5	22.5	83	18.1	2	4	270	0.00	30.075 
13:25	22.7	22.7	22.7	83	18.3	2	5	248	0.00	30.075 
13:30	22.7	22.7	22.7	83	18.3	2	5	248	0.00	30.071 
13:35	22.9	22.9	22.9	83	18.5	2	4	292	0.00	30.071 
13:40	22.9	22.9	22.9	82	18.2	3	6	270	0.00	30.071 
13:45	22.9	22.9	22.9	82	18.2	2	4	315	0.00	30.064 
13:50	23.2	23.2	23.2	82	18.5	2	6	248	0.00	30.064 
13:55	23.0	23.0	23.0	81	18.1	2	5	248	0.00	30.064 
14:00	22.9	22.9	22.9	82	18.2	2	5	270	0.00	30.059 
14:05	22.9	22.9	22.9	82	18.2	2	4	270	0.00	30.059 
14:10	23.0	23.0	23.0	82	18.3	1	3	248	0.00	30.059 
14:15	23.0	23.0	23.0	82	18.3	2	5	270	0.00	30.057 
14:20	23.2	23.2	23.2	82	18.5	2	4	248	0.00	30.057 
14:25	23.0	23.0	23.0	82	18.3	3	5	270	0.00	30.057 
14:30	23.0	23.0	23.0	81	18.1	3	7	270	0.00	30.050 
14:35	23.2	23.2	23.2	81	18.3	3	5	270	0.00	30.050 
14:40	23.2	17.9	23.2	81	18.3	4	6	270	0.00	30.050 
14:45	23.3	23.3	23.3	81	18.3	3	9	270	0.00	30.048 
14:50	23.5	23.5	23.5	81	18.5	3	4	270	0.00	30.048 
14:55	23.6	23.6	23.6	80	18.4	3	6	270	0.00	30.048 
15:00	23.6	23.6	23.6	80	18.4	3	10	270	0.00	30.043 
15:05	23.5	18.3	23.5	79	18.0	4	7	270	0.00	30.043 
15:10	23.5	23.5	23.5	79	18.0	3	6	270	0.00	30.043 
15:15	23.5	23.5	23.5	78	17.7	3	5	270	0.00	30.044 
15:20	23.3	23.3	23.3	77	17.2	3	6	270	0.00	30.044 
15:25	23.2	23.2	23.2	77	17.1	3	7	270	0.00	30.044 
15:30	23.0	23.0	23.0	77	16.9	3	6	292	0.00	30.046 
15:35	22.9	22.9	22.9	77	16.8	3	7	270	0.00	30.046 
15:40	22.9	22.9	22.9	77	16.8	3	7	270	0.00	30.046 
15:45	22.7	22.7	22.7	77	16.6	3	6	270	0.00	30.046 
15:50	22.5	22.5	22.5	77	16.4	3	6	248	0.00	30.046 
15:55	22.4	22.4	22.4	77	16.3	3	7	270	0.00	30.046 
16:00	22.1	16.6	22.1	77	16.0	4	9	270	0.00	30.050 
16:05	21.9	21.9	21.9	77	15.8	3	6	270	0.00	30.050 
16:10	21.9	21.9	21.9	77	15.8	3	7	270	0.00	30.050 
16:15	21.9	21.9	21.9	77	15.8	3	7	270	0.00	30.049 
16:20	21.6	16.1	21.6	76	15.2	4	9	270	0.00	30.049 
16:25	21.4	21.4	21.4	76	15.0	3	5	270	0.00	30.049 
16:30	21.4	15.8	21.4	77	15.3	4	6	270	0.00	30.050 
16:35	21.3	21.3	21.3	77	15.2	3	6	270	0.00	30.050 
16:40	21.1	15.5	21.1	78	15.3	4	7	270	0.00	30.050 
16:45	21.1	21.1	21.1	79	15.6	3	5	270	0.00	30.051 
16:50	21.0	21.0	21.0	79	15.5	3	6	270	0.00	30.051 
16:55	21.0	21.0	21.0	79	15.5	3	5	270	0.00	30.051 
17:00	21.0	21.0	21.0	79	15.5	3	7	270	0.00	30.052 
17:05	21.0	21.0	21.0	79	15.5	3	6	270	0.00	30.052 
17:10	20.8	20.8	20.8	79	15.3	3	6	248	0.00	30.052 
17:15	20.8	20.8	20.8	79	15.3	3	5	248	0.00	30.052 
17:20	20.6	20.6	20.6	79	15.1	3	7	248	0.00	30.052 
17:25	20.6	20.6	20.6	79	15.1	3	6	270	0.00	30.052 
17:30	20.5	20.5	20.5	79	15.0	3	6	270	0.00	30.052 
17:35	20.5	20.5	20.5	79	15.0	3	6	270	0.00	30.052 
17:40	20.3	14.6	20.3	79	14.8	4	8	270	0.00	30.052 
17:45	20.3	20.3	20.3	80	15.1	3	7	270	0.00	30.053 
17:50	20.2	20.2	20.2	80	15.0	3	5	248	0.00	30.053 
17:55	20.2	20.2	20.2	80	15.0	3	7	248	0.00	30.053 
18:00	20.0	20.0	20.0	80	14.8	3	6	248	0.00	30.050 
18:05	20.0	20.0	20.0	80	14.8	3	7	248	0.00	30.050 
18:10	20.0	20.0	20.0	79	14.6	3	6	270	0.00	30.050 
18:15	20.0	20.0	20.0	79	14.6	3	9	270	0.00	30.051 
18:20	20.0	20.0	20.0	79	14.6	3	7	248	0.00	30.051 
18:25	19.9	14.1	19.9	78	14.2	4	9	270	0.00	30.051 
18:30	19.7	19.7	19.7	78	14.0	3	7	270	0.00	30.051 
18:35	19.7	19.7	19.7	78	14.0	3	7	270	0.00	30.051 
18:40	19.5	19.5	19.5	78	13.8	3	6	248	0.00	30.051 
18:45	19.4	13.5	19.4	77	13.4	4	9	270	0.00	30.050 
18:50	19.4	19.4	19.4	78	13.7	3	7	248	0.00	30.050 
18:55	19.4	13.5	19.4	78	13.7	4	9	270	0.00	30.050 
19:00	19.4	19.4	19.4	78	13.7	2	5	248	0.00	30.048 
19:05	19.2	19.2	19.2	79	13.8	3	9	248	0.00	30.048 
19:10	19.2	19.2	19.2	79	13.8	3	6	270	0.00	30.048 
19:15	19.2	19.2	19.2	79	13.8	3	5	270	0.00	30.051 
19:20	19.2	19.2	19.2	79	13.8	3	5	270	0.00	30.051 
19:25	19.1	19.1	19.1	79	13.7	3	6	270	0.00	30.051 
19:30	19.1	13.2	19.1	78	13.4	4	11	270	0.00	30.049 
19:35	19.1	19.1	19.1	78	13.4	2	7	270	0.00	30.049 
19:40	19.1	19.1	19.1	78	13.4	3	6	248	0.00	30.049 
19:45	19.1	19.1	19.1	78	13.4	3	6	248	0.00	30.044 
19:50	19.1	19.1	19.1	78	13.4	3	6	270	0.00	30.044 
19:55	18.9	12.9	18.9	77	12.9	4	7	270	0.00	30.044 
20:00	18.9	18.9	18.9	77	12.9	3	6	270	0.00	30.049 
20:05	18.8	18.8	18.8	78	13.1	3	6	270	0.00	30.049 
20:10	18.8	18.8	18.8	78	13.1	3	6	270	0.00	30.049 
20:15	18.6	18.6	18.6	78	12.9	2	4	248	0.00	30.045 
20:20	18.6	18.6	18.6	78	12.9	2	5	248	0.00	30.045 
20:25	18.4	18.4	18.4	78	12.7	2	4	248	0.00	30.045 
20:30	18.4	18.4	18.4	79	13.0	2	4	248	0.00	30.042 
20:35	18.1	18.1	18.1	79	12.7	3	7	270	0.00	30.042 
20:40	18.0	18.0	18.0	78	12.3	3	6	270	0.00	30.042 
20:45	17.7	17.7	17.7	78	12.0	3	5	292	0.00	30.043 
20:50	17.5	17.5	17.5	78	11.8	3	5	248	0.00	30.043 
20:55	17.3	17.3	17.3	78	11.6	3	5	270	0.00	30.043 
21:00	17.2	17.2	17.2	78	11.5	2	6	270	0.00	30.039 
21:05	17.2	17.2	17.2	78	11.5	3	7	270	0.00	30.039 
21:10	17.0	17.0	17.0	79	11.6	3	7	270	0.00	30.039 
21:15	17.0	17.0	17.0	79	11.6	3	10	248	0.00	30.037 
21:20	17.0	17.0	17.0	79	11.6	3	7	270	0.00	30.037 
21:25	16.7	16.7	16.7	79	11.3	3	5	270	0.00	30.037 
21:30	16.5	16.5	16.5	79	11.1	3	6	270	0.00	30.031 
21:35	16.4	16.4	16.4	79	11.0	3	5	270	0.00	30.031 
21:40	16.1	16.1	16.1	79	10.8	3	7	248	0.00	30.031 
21:45	15.9	15.9	15.9	80	10.8	3	4	248	0.00	30.027 
21:50	15.7	15.7	15.7	80	10.6	2	5	248	0.00	30.027 
21:55	15.7	15.7	15.7	80	10.6	3	9	270	0.00	30.027 
22:00	15.7	15.7	15.7	80	10.6	3	6	248	0.00	30.024 
22:05	15.7	15.7	15.7	80	10.6	3	6	248	0.00	30.024 
22:10	15.7	15.7	15.7	80	10.6	2	6	248	0.00	30.024 
22:15	15.7	15.7	15.7	80	10.6	3	5	248	0.00	30.021 
22:20	15.7	15.7	15.7	80	10.6	2	4	248	0.00	30.021 
22:25	15.7	15.7	15.7	81	10.9	2	4	248	0.00	30.021 
22:30	15.7	15.7	15.7	81	10.9	2	7	248	0.00	30.021 
22:35	15.7	15.7	15.7	81	10.9	2	5	248	0.00	30.021 
22:40	15.9	15.9	15.9	81	11.1	3	7	248	0.00	30.021 
22:45	15.9	15.9	15.9	81	11.1	2	4	248	0.00	30.020 
22:50	15.9	15.9	15.9	82	11.4	2	7	225	0.00	30.020 
22:55	15.9	15.9	15.9	82	11.4	2	4	248	0.00	30.020 
23:00	15.9	15.9	15.9	82	11.4	2	5	248	0.00	30.021 
23:05	15.9	15.9	15.9	82	11.4	1	3	248	0.00	30.021 
23:10	15.9	15.9	15.9	82	11.4	2	4	248	0.00	30.021 
23:15	15.9	15.9	15.9	83	11.7	1	3	248	0.00	30.019 
23:20	15.9	15.9	15.9	83	11.7	2	5	248	0.00	30.019 
23:25	15.9	15.9	15.9	83	11.7	2	5	270	0.00	30.019 
23:30	15.9	15.9	15.9	83	11.7	2	5	248	0.00	30.016 
23:35	15.9	15.9	15.9	83	11.7	1	4	248	0.00	30.016 
23:40	15.9	15.9	15.9	83	11.7	1	4	248	0.00	30.016 
23:45	15.9	15.9	15.9	84	11.9	2	4	248	0.00	30.017 
23:50	15.9	15.9	15.9	84	11.9	1	3	225	0.00	30.017 
23:55	16.1	16.1	16.1	84	12.1	1	3	225	0.00	30.017 

CoCoRaHS
IN-AL-39
A2 Web Hosting
Creative Commons License
GoDaddy
search engine by freefind advanced

loaded 2018-11-15 18:04:31 • last modified 2010-11-18 10:43:29
Privacy PolicyDisclaimer
• wx.awcolley.com is powered by PmWiki v.2002016 •
• all content (unless otherwise noted) © 2018 A W Colley